createdAt,value
2019-04-11T00:00:48.044Z,2.68
2019-04-11T00:01:48.572Z,2.57
2019-04-11T00:02:47.021Z,2.67
2019-04-11T00:03:46.582Z,2.56
2019-04-11T00:04:46.636Z,2.54
2019-04-11T00:05:47.361Z,2.61
2019-04-11T00:06:47.781Z,2.60
2019-04-11T00:07:46.753Z,2.57
2019-04-11T00:08:46.531Z,2.60
2019-04-11T00:09:47.788Z,2.61
2019-04-11T00:10:47.056Z,2.60
2019-04-11T00:11:46.528Z,2.57
2019-04-11T00:12:46.585Z,2.47
2019-04-11T00:13:47.362Z,2.56
2019-04-11T00:14:46.946Z,2.49
2019-04-11T00:15:46.726Z,2.43
2019-04-11T00:16:47.628Z,2.50
2019-04-11T00:17:46.414Z,2.38
2019-04-11T00:18:47.143Z,2.39
2019-04-11T00:19:47.408Z,2.44
2019-04-11T00:20:46.524Z,2.46
2019-04-11T00:21:46.774Z,2.44
2019-04-11T00:22:46.482Z,2.44
2019-04-11T00:23:46.349Z,2.42
2019-04-11T00:24:47.200Z,2.39
2019-04-11T00:25:47.446Z,2.43
2019-04-11T00:26:46.625Z,2.44
2019-04-11T00:27:46.365Z,2.39
2019-04-11T00:28:46.423Z,2.49
2019-04-11T00:29:47.006Z,2.38
2019-04-11T00:30:46.413Z,2.42
2019-04-11T00:31:46.829Z,2.43
2019-04-11T00:32:46.479Z,2.46
2019-04-11T00:33:46.628Z,2.44
2019-04-11T00:34:47.019Z,2.39
2019-04-11T00:35:46.224Z,2.47
2019-04-11T00:36:46.442Z,2.43
2019-04-11T00:37:47.403Z,2.38
2019-04-11T00:38:46.368Z,2.44
2019-04-11T00:39:46.233Z,2.43
2019-04-11T00:40:46.282Z,2.49
2019-04-11T00:41:46.195Z,2.46
2019-04-11T00:42:47.110Z,2.39
2019-04-11T00:43:46.884Z,2.42
2019-04-11T00:44:47.973Z,2.38
2019-04-11T00:45:46.130Z,2.31
2019-04-11T00:46:46.726Z,2.28
2019-04-11T00:47:47.017Z,2.29
2019-04-11T00:48:46.232Z,2.24
2019-04-11T00:49:46.463Z,2.26
2019-04-11T00:50:46.241Z,2.24
2019-04-11T00:51:46.173Z,2.14
2019-04-11T00:52:46.156Z,2.14
2019-04-11T00:53:46.554Z,2.17
2019-04-11T00:54:46.978Z,2.14
2019-04-11T00:55:46.098Z,2.17
2019-04-11T00:56:46.346Z,2.15
2019-04-11T00:57:46.024Z,2.17
2019-04-11T00:58:46.103Z,2.14
2019-04-11T00:59:46.766Z,2.15
2019-04-11T01:00:47.133Z,2.17
2019-04-11T01:01:47.106Z,2.22
2019-04-11T01:02:46.121Z,2.15
2019-04-11T01:03:45.935Z,2.18
2019-04-11T01:04:46.034Z,2.10
2019-04-11T01:05:45.914Z,2.13
2019-04-11T01:06:46.715Z,2.04
2019-04-11T01:07:47.106Z,2.13
2019-04-11T01:08:46.099Z,2.04
2019-04-11T01:09:45.897Z,2.14
2019-04-11T01:10:45.961Z,2.07
2019-04-11T01:11:45.918Z,2.14
2019-04-11T01:12:46.935Z,2.07
2019-04-11T01:13:50.847Z,2.07
2019-04-11T01:14:46.956Z,2.07
2019-04-11T01:15:46.870Z,2.04
2019-04-11T01:16:45.902Z,2.10
2019-04-11T01:17:45.855Z,2.08
2019-04-11T01:18:46.517Z,2.10
2019-04-11T01:19:46.804Z,2.00
2019-04-11T01:20:46.036Z,1.97
2019-04-11T01:21:45.761Z,1.99
2019-04-11T01:22:46.609Z,1.99
2019-04-11T01:23:45.733Z,1.95
2019-04-11T01:24:46.068Z,1.87
2019-04-11T01:25:46.458Z,1.92
2019-04-11T01:26:45.859Z,1.94
2019-04-11T01:27:45.917Z,1.91
2019-04-11T01:28:46.739Z,1.92
2019-04-11T01:29:45.690Z,2.00
2019-04-11T01:30:45.803Z,1.89
2019-04-11T01:31:46.237Z,1.92
2019-04-11T01:32:46.509Z,1.89
2019-04-11T01:33:46.349Z,1.85
2019-04-11T01:34:45.724Z,1.85
2019-04-11T01:35:45.766Z,1.70
2019-04-11T01:36:45.738Z,1.67
2019-04-11T01:37:46.147Z,1.66
2019-04-11T01:38:46.371Z,1.68
2019-04-11T01:39:45.646Z,1.68
2019-04-11T01:40:45.680Z,1.58
2019-04-11T01:41:46.717Z,1.63
2019-04-11T01:42:45.612Z,1.68
2019-04-11T01:43:53.416Z,1.63
2019-04-11T01:44:47.456Z,1.71
2019-04-11T01:45:45.638Z,1.70
2019-04-11T01:46:46.482Z,1.66
2019-04-11T01:47:45.491Z,1.70
2019-04-11T01:48:45.913Z,1.63
2019-04-11T01:49:46.198Z,1.68
2019-04-11T01:50:45.660Z,1.67
2019-04-11T01:51:45.610Z,1.56
2019-04-11T01:52:46.617Z,1.70
2019-04-11T01:53:45.480Z,1.58
2019-04-11T01:54:52.509Z,1.59
2019-04-11T01:55:45.423Z,1.67
2019-04-11T01:56:45.588Z,1.55
2019-04-11T01:57:46.404Z,1.55
2019-04-11T01:58:45.544Z,1.59
2019-04-11T01:59:45.884Z,1.55
2019-04-11T02:00:45.482Z,1.53
2019-04-11T02:01:45.367Z,1.49
2019-04-11T02:02:46.494Z,1.50
2019-04-11T02:03:45.655Z,1.49
2019-04-11T02:04:46.041Z,1.56
2019-04-11T02:05:45.370Z,1.56
2019-04-11T02:06:45.873Z,1.49
2019-04-11T02:07:45.281Z,1.50
2019-04-11T02:08:45.393Z,1.49
2019-04-11T02:09:46.308Z,1.42
2019-04-11T02:10:45.378Z,1.37
2019-04-11T02:11:45.750Z,1.41
2019-04-11T02:12:45.592Z,1.38
2019-04-11T02:13:45.294Z,1.40
2019-04-11T02:14:45.905Z,1.41
2019-04-11T02:15:46.226Z,1.35
2019-04-11T02:16:45.424Z,1.32
2019-04-11T02:17:45.177Z,1.35
2019-04-11T02:18:45.723Z,1.20
2019-04-11T02:19:45.208Z,1.28
2019-04-11T02:20:45.293Z,1.24
2019-04-11T02:21:46.162Z,1.32
2019-04-11T02:22:45.215Z,1.34
2019-04-11T02:23:45.530Z,1.19
2019-04-11T02:24:45.264Z,1.28
2019-04-11T02:25:45.099Z,1.30
2019-04-11T02:26:46.811Z,1.28
2019-04-11T02:27:46.106Z,1.37
2019-04-11T02:28:45.236Z,1.34
2019-04-11T02:29:45.143Z,1.38
2019-04-11T02:30:47.661Z,1.38
2019-04-11T02:31:46.663Z,1.31
2019-04-11T02:32:47.350Z,1.32
2019-04-11T02:33:46.874Z,1.20
2019-04-11T02:34:46.191Z,1.28
2019-04-11T02:35:47.018Z,1.37
2019-04-11T02:36:45.591Z,1.37
2019-04-11T02:37:47.593Z,1.22
2019-04-11T02:38:48.934Z,1.16
2019-04-11T02:39:47.294Z,1.22
2019-04-11T02:40:45.949Z,1.13
2019-04-11T02:41:46.748Z,1.23
2019-04-11T02:42:47.476Z,1.20
2019-04-11T02:43:46.707Z,1.16
2019-04-11T02:44:59.676Z,1.17
2019-04-11T02:46:00.101Z,1.16
2019-04-11T02:46:57.107Z,1.05
2019-04-11T02:47:48.403Z,1.20
2019-04-11T02:48:45.495Z,1.05
2019-04-11T02:49:45.661Z,1.13
2019-04-11T02:50:45.894Z,1.04
2019-04-11T02:51:45.094Z,1.02
2019-04-11T02:52:45.028Z,0.96
2019-04-11T02:53:45.115Z,0.94
2019-04-11T02:54:45.228Z,0.95
2019-04-11T02:55:46.596Z,0.98
2019-04-11T02:56:45.563Z,0.94
2019-04-11T02:57:46.005Z,1.01
2019-04-11T02:58:46.313Z,0.99
2019-04-11T02:59:46.769Z,1.05
2019-04-11T03:00:45.573Z,0.96
2019-04-11T03:01:46.342Z,0.99
2019-04-11T03:02:44.887Z,0.92
2019-04-11T03:03:45.519Z,0.94
2019-04-11T03:04:45.980Z,0.87
2019-04-11T03:05:46.798Z,0.86
2019-04-11T03:06:45.746Z,0.94
2019-04-11T03:07:45.836Z,0.95
2019-04-11T03:08:46.387Z,0.95
2019-04-11T03:09:46.836Z,0.91
2019-04-11T03:10:45.530Z,1.01
2019-04-11T03:11:45.095Z,0.99
2019-04-11T03:12:47.557Z,1.02
2019-04-11T03:13:46.392Z,1.02
2019-04-11T03:15:16.468Z,0.96
2019-04-11T03:16:00.484Z,0.96
2019-04-11T03:16:56.394Z,0.99
2019-04-11T03:17:46.635Z,0.98
2019-04-11T03:18:59.325Z,0.99
2019-04-11T03:19:59.495Z,0.96
2019-04-11T03:20:49.815Z,1.05
2019-04-11T03:21:46.953Z,0.98
2019-04-11T03:22:45.396Z,1.01
2019-04-11T03:23:46.753Z,1.04
2019-04-11T03:24:44.646Z,1.06
2019-04-11T03:25:44.971Z,1.06
2019-04-11T03:26:45.791Z,1.04
2019-04-11T03:27:45.259Z,0.94
2019-04-11T03:28:49.003Z,1.02
2019-04-11T03:29:45.826Z,1.04
2019-04-11T03:31:09.384Z,0.98
2019-04-11T03:33:50.300Z,0.99
2019-04-11T03:35:37.807Z,0.96
2019-04-11T03:36:53.260Z,0.91
2019-04-11T03:37:22.970Z,0.74
2019-04-11T03:38:03.642Z,0.74
2019-04-11T03:39:05.453Z,0.74
2019-04-11T03:40:07.467Z,0.78
2019-04-11T03:41:04.307Z,0.69
2019-04-11T03:41:59.023Z,0.63
2019-04-11T03:42:59.432Z,0.59
2019-04-11T03:43:54.139Z,0.56
2019-04-11T03:44:54.904Z,0.52
2019-04-11T03:46:03.873Z,0.39
2019-04-11T03:47:01.163Z,0.50
2019-04-11T03:48:02.268Z,0.37
2019-04-11T03:48:55.743Z,0.41
2019-04-11T03:49:51.831Z,0.31
2019-04-11T03:50:46.681Z,0.32
2019-04-11T03:51:46.006Z,0.31
2019-04-11T03:52:45.006Z,0.25
2019-04-11T03:53:44.968Z,0.12
2019-04-11T03:54:45.495Z,0.10
2019-04-11T03:55:45.587Z,0.10
2019-04-11T03:56:45.796Z,0.12
2019-04-11T03:57:44.323Z,0.18
2019-04-11T03:58:46.080Z,0.16
2019-04-11T03:59:45.818Z,0.12
2019-04-11T04:00:44.605Z,0.19
2019-04-11T04:01:44.562Z,0.19
2019-04-11T04:02:44.476Z,0.23
2019-04-11T04:03:44.718Z,0.15
2019-04-11T04:04:45.613Z,0.23
2019-04-11T04:05:44.787Z,0.12
2019-04-11T04:06:45.747Z,0.11
2019-04-11T04:07:44.438Z,0.07
2019-04-11T04:08:44.545Z,-0.02
2019-04-11T04:09:45.970Z,-0.18
2019-04-11T04:10:44.178Z,-0.14
2019-04-11T04:11:45.050Z,-0.14
2019-04-11T04:12:45.367Z,-0.15
2019-04-11T04:13:45.550Z,-0.18
2019-04-11T04:14:45.262Z,-0.23
2019-04-11T04:15:58.279Z,-0.28
2019-04-11T04:16:48.237Z,-0.21
2019-04-11T04:17:45.548Z,-0.13
2019-04-11T04:18:45.698Z,-0.10
2019-04-11T04:19:45.569Z,0.03
2019-04-11T04:20:45.970Z,0.15
2019-04-11T04:21:43.932Z,0.19
2019-04-11T04:22:45.858Z,0.22
2019-04-11T04:23:45.562Z,0.12
2019-04-11T04:24:45.464Z,0.18
2019-04-11T04:25:47.037Z,0.18
2019-04-11T04:26:44.019Z,0.08
2019-04-11T04:27:45.076Z,0.10
2019-04-11T04:28:45.251Z,0.12
2019-04-11T04:29:47.369Z,0.10
2019-04-11T04:30:46.839Z,0.05
2019-04-11T04:31:44.765Z,0.11
2019-04-11T04:32:45.170Z,0.00
2019-04-11T04:33:45.599Z,0.01
2019-04-11T04:34:44.334Z,-0.11
2019-04-11T04:35:44.749Z,-0.21
2019-04-11T04:36:43.907Z,-0.14
2019-04-11T04:37:45.270Z,-0.20
2019-04-11T04:38:44.539Z,-0.18
2019-04-11T04:39:43.848Z,-0.23
2019-04-11T04:40:58.354Z,-0.15
2019-04-11T04:41:53.110Z,-0.20
2019-04-11T04:42:48.905Z,-0.15
2019-04-11T04:43:44.867Z,-0.23
2019-04-11T04:44:45.137Z,-0.15
2019-04-11T04:46:05.061Z,-0.17
2019-04-11T04:46:58.169Z,-0.20
2019-04-11T04:47:48.915Z,-0.06
2019-04-11T04:48:45.597Z,-0.06
2019-04-11T04:49:43.868Z,-0.15
2019-04-11T04:50:44.901Z,-0.17
2019-04-11T04:51:44.312Z,-0.15
2019-04-11T04:52:44.971Z,-0.10
2019-04-11T04:53:45.038Z,-0.06
2019-04-11T04:54:44.345Z,-0.15
2019-04-11T04:55:45.558Z,-0.03
2019-04-11T04:56:45.363Z,-0.06
2019-04-11T04:57:44.947Z,-0.07
2019-04-11T04:58:44.449Z,-0.11
2019-04-11T04:59:44.823Z,-0.07
2019-04-11T05:00:43.738Z,0.11
2019-04-11T05:01:46.328Z,0.15
2019-04-11T05:02:44.155Z,0.10
2019-04-11T05:03:44.686Z,0.21
2019-04-11T05:04:43.861Z,0.31
2019-04-11T05:05:44.281Z,0.26
2019-04-11T05:06:46.689Z,0.26
2019-04-11T05:07:46.235Z,0.26
2019-04-11T05:08:45.017Z,0.31
2019-04-11T05:09:43.453Z,0.26
2019-04-11T05:10:44.860Z,0.26
2019-04-11T05:11:44.601Z,0.31
2019-04-11T05:12:43.949Z,0.29
2019-04-11T05:13:48.164Z,0.32
2019-04-11T05:14:45.588Z,0.32
2019-04-11T05:15:44.141Z,0.23
2019-04-11T05:16:44.158Z,0.25
2019-04-11T05:17:44.463Z,0.32
2019-04-11T05:18:43.989Z,0.39
2019-04-11T05:19:44.478Z,0.41
2019-04-11T05:20:44.212Z,0.46
2019-04-11T05:21:44.372Z,0.39
2019-04-11T05:22:43.710Z,0.49
2019-04-11T05:23:48.661Z,0.39
2019-04-11T05:24:45.323Z,0.47
2019-04-11T05:26:00.003Z,0.55
2019-04-11T05:26:44.017Z,0.55
2019-04-11T05:27:45.360Z,0.43
2019-04-11T05:28:45.772Z,0.37
2019-04-11T05:29:47.649Z,0.43
2019-04-11T05:30:47.245Z,0.44
2019-04-11T05:31:44.882Z,0.55
2019-04-11T05:32:45.097Z,0.46
2019-04-11T05:33:43.503Z,0.50
2019-04-11T05:34:47.089Z,0.58
2019-04-11T05:35:44.317Z,0.60
2019-04-11T05:36:43.234Z,0.60
2019-04-11T05:37:43.157Z,0.63
2019-04-11T05:38:44.361Z,0.73
2019-04-11T05:39:43.140Z,0.73
2019-04-11T05:40:43.269Z,0.78
2019-04-11T05:41:46.624Z,0.78
2019-04-11T05:42:43.177Z,0.81
2019-04-11T05:43:43.137Z,0.96
2019-04-11T05:44:43.296Z,1.01
2019-04-11T05:45:43.084Z,1.08
2019-04-11T05:46:52.403Z,1.19
2019-04-11T05:47:48.116Z,1.20
2019-04-11T05:48:45.236Z,1.31
2019-04-11T05:49:43.903Z,1.37
2019-04-11T05:50:47.063Z,1.41
2019-04-11T05:51:47.108Z,1.31
2019-04-11T05:52:44.145Z,1.42
2019-04-11T05:53:43.764Z,1.38
2019-04-11T05:54:47.437Z,1.53
2019-04-11T05:55:45.809Z,1.56
2019-04-11T05:56:43.713Z,1.52
2019-04-11T05:57:43.162Z,1.52
2019-04-11T05:58:45.707Z,1.53
2019-04-11T05:59:43.309Z,1.53
2019-04-11T06:00:44.388Z,1.60
2019-04-11T06:01:43.143Z,1.62
2019-04-11T06:02:43.725Z,1.66
2019-04-11T06:03:45.279Z,1.68
2019-04-11T06:04:42.937Z,1.67
2019-04-11T06:05:44.417Z,1.77
2019-04-11T06:06:42.968Z,1.77
2019-04-11T06:07:46.988Z,1.91
2019-04-11T06:08:44.230Z,1.85
2019-04-11T06:09:44.067Z,1.94
2019-04-11T06:10:43.965Z,1.92
2019-04-11T06:11:43.175Z,2.00
2019-04-11T06:12:43.509Z,1.94
2019-04-11T06:13:42.997Z,1.91
2019-04-11T06:14:43.682Z,1.95
2019-04-11T06:15:44.269Z,2.04
2019-04-11T06:16:48.785Z,2.02
2019-04-11T06:17:43.746Z,2.06
2019-04-11T06:18:45.506Z,2.10
2019-04-11T06:19:43.783Z,2.07
2019-04-11T06:20:43.162Z,2.06
2019-04-11T06:21:42.748Z,2.04
2019-04-11T06:22:42.721Z,2.18
2019-04-11T06:23:43.462Z,2.10
2019-04-11T06:24:42.709Z,2.10
2019-04-11T06:25:45.129Z,2.17
2019-04-11T06:26:42.934Z,2.15
2019-04-11T06:27:43.187Z,2.18
2019-04-11T06:28:42.711Z,2.26
2019-04-11T06:29:43.131Z,2.33
2019-04-11T06:30:42.629Z,2.36
2019-04-11T06:31:42.622Z,2.32
2019-04-11T06:32:43.687Z,2.46
2019-04-11T06:33:42.885Z,2.42
2019-04-11T06:34:43.779Z,2.49
2019-04-11T06:35:42.695Z,2.49
2019-04-11T06:36:43.384Z,2.39
2019-04-11T06:37:43.701Z,2.50
2019-04-11T06:38:42.850Z,2.51
2019-04-11T06:39:43.279Z,2.51
2019-04-11T06:40:42.527Z,2.57
2019-04-11T06:41:43.022Z,2.61
2019-04-11T06:42:43.416Z,2.72
2019-04-11T06:43:43.024Z,2.65
2019-04-11T06:44:42.743Z,2.69
2019-04-11T06:45:42.549Z,2.71
2019-04-11T06:46:49.646Z,2.82
2019-04-11T06:47:43.453Z,2.77
2019-04-11T06:48:42.642Z,2.77
2019-04-11T06:49:42.639Z,2.79
2019-04-11T06:50:43.786Z,2.87
2019-04-11T06:51:42.412Z,2.85
2019-04-11T06:52:43.290Z,2.87
2019-04-11T06:53:42.418Z,2.93
2019-04-11T06:54:43.686Z,2.97
2019-04-11T06:55:42.702Z,2.89
2019-04-11T06:56:43.394Z,2.93
2019-04-11T06:57:42.473Z,3.05
2019-04-11T06:58:43.458Z,3.05
2019-04-11T06:59:43.025Z,3.03
2019-04-11T07:00:42.496Z,3.07
2019-04-11T07:01:42.601Z,3.05
2019-04-11T07:02:42.484Z,3.10
2019-04-11T07:03:42.305Z,3.14
2019-04-11T07:04:42.456Z,3.21
2019-04-11T07:05:42.705Z,3.21
2019-04-11T07:06:42.456Z,3.21
2019-04-11T07:07:42.990Z,3.25
2019-04-11T07:08:42.649Z,3.32
2019-04-11T07:09:42.247Z,3.42
2019-04-11T07:10:42.571Z,3.44
2019-04-11T07:11:42.664Z,3.37
2019-04-11T07:12:42.766Z,3.37
2019-04-11T07:13:43.336Z,3.34
2019-04-11T07:14:43.323Z,3.42
2019-04-11T07:15:42.183Z,3.45
2019-04-11T07:16:43.371Z,3.50
2019-04-11T07:17:42.156Z,3.55
2019-04-11T07:18:44.229Z,3.58
2019-04-11T07:19:42.150Z,3.55
2019-04-11T07:20:43.486Z,3.55
2019-04-11T07:21:42.085Z,3.62
2019-04-11T07:22:43.182Z,3.66
2019-04-11T07:23:44.085Z,3.73
2019-04-11T07:24:43.185Z,3.73
2019-04-11T07:25:43.060Z,3.78
2019-04-11T07:26:42.169Z,3.76
2019-04-11T07:27:42.947Z,3.80
2019-04-11T07:28:43.690Z,3.87
2019-04-11T07:29:42.215Z,3.84
2019-04-11T07:30:42.061Z,3.88
2019-04-11T07:31:41.985Z,3.99
2019-04-11T07:32:42.803Z,3.95
2019-04-11T07:33:43.153Z,4.02
2019-04-11T07:34:43.553Z,4.01
2019-04-11T07:35:42.070Z,4.05
2019-04-11T07:36:41.947Z,4.06
2019-04-11T07:37:41.941Z,4.14
2019-04-11T07:38:43.294Z,4.13
2019-04-11T07:39:44.852Z,4.22
2019-04-11T07:40:43.032Z,4.31
2019-04-11T07:41:43.490Z,4.32
2019-04-11T07:42:43.360Z,4.31
2019-04-11T07:43:43.157Z,4.38
2019-04-11T07:44:42.944Z,4.37
2019-04-11T07:45:43.252Z,4.44
2019-04-11T07:46:42.934Z,4.48
2019-04-11T07:47:41.980Z,4.44
2019-04-11T07:48:42.628Z,4.45
2019-04-11T07:49:42.814Z,4.52
2019-04-11T07:50:42.265Z,4.66
2019-04-11T07:51:43.053Z,4.67
2019-04-11T07:52:42.584Z,4.70
2019-04-11T07:53:41.797Z,4.66
2019-04-11T07:54:41.800Z,4.66
2019-04-11T07:55:42.314Z,4.71
2019-04-11T07:56:41.957Z,4.67
2019-04-11T07:57:42.540Z,4.68
2019-04-11T07:58:42.086Z,4.80
2019-04-11T07:59:41.912Z,4.84
2019-04-11T08:00:44.844Z,4.74
2019-04-11T08:01:42.800Z,4.66
2019-04-11T08:02:41.745Z,4.67
2019-04-11T08:03:41.883Z,4.70
2019-04-11T08:04:42.722Z,4.67
2019-04-11T08:05:42.780Z,4.67
2019-04-11T08:06:41.655Z,4.74
2019-04-11T08:07:42.511Z,4.86
2019-04-11T08:08:41.647Z,4.86
2019-04-11T08:09:41.740Z,4.84
2019-04-11T08:10:41.609Z,4.99
2019-04-11T08:11:42.175Z,5.00
2019-04-11T08:12:41.583Z,5.02
2019-04-11T08:13:42.877Z,5.10
2019-04-11T08:14:42.476Z,5.14
2019-04-11T08:15:41.962Z,5.25
2019-04-11T08:16:42.615Z,5.30
2019-04-11T08:17:42.959Z,5.43
2019-04-11T08:18:41.660Z,5.38
2019-04-11T08:19:42.778Z,5.51
2019-04-11T08:20:41.632Z,5.54
2019-04-11T08:21:41.945Z,5.56
2019-04-11T08:22:41.474Z,5.64
2019-04-11T08:23:43.521Z,5.65
2019-04-11T08:24:42.645Z,5.65
2019-04-11T08:25:41.860Z,5.75
2019-04-11T08:26:42.252Z,5.79
2019-04-11T08:27:53.002Z,5.75
2019-04-11T08:28:43.490Z,5.76
2019-04-11T08:29:42.176Z,5.83
2019-04-11T08:30:41.571Z,5.82
2019-04-11T08:31:41.569Z,5.86
2019-04-11T08:32:42.064Z,5.90
2019-04-11T08:33:42.562Z,5.93
2019-04-11T08:34:41.662Z,5.93
2019-04-11T08:35:42.027Z,5.87
2019-04-11T08:36:42.076Z,5.99
2019-04-11T08:37:41.546Z,6.05
2019-04-11T08:38:42.550Z,5.99
2019-04-11T08:39:41.606Z,6.12
2019-04-11T08:40:41.338Z,6.09
2019-04-11T08:41:42.030Z,6.14
2019-04-11T08:42:42.386Z,6.30
2019-04-11T08:43:41.542Z,6.22
2019-04-11T08:44:42.366Z,6.35
2019-04-11T08:45:42.270Z,6.30
2019-04-11T08:46:42.611Z,6.33
2019-04-11T08:47:47.044Z,6.38
2019-04-11T08:48:42.807Z,6.45
2019-04-11T08:49:41.871Z,6.38
2019-04-11T08:50:41.160Z,6.44
2019-04-11T08:51:41.282Z,6.46
2019-04-11T08:52:42.285Z,6.57
2019-04-11T08:53:41.172Z,6.67
2019-04-11T08:54:41.736Z,6.59
2019-04-11T08:55:48.633Z,6.66
2019-04-11T08:56:43.162Z,6.63
2019-04-11T08:57:42.599Z,6.69
2019-04-11T08:58:41.113Z,6.64
2019-04-11T08:59:41.778Z,6.74
2019-04-11T09:00:42.186Z,6.67
2019-04-11T09:01:42.295Z,6.67
2019-04-11T09:02:41.058Z,6.77
2019-04-11T09:03:41.991Z,6.85
2019-04-11T09:04:41.244Z,6.85
2019-04-11T09:05:41.052Z,7.00
2019-04-11T09:06:41.045Z,7.00
2019-04-11T09:07:41.498Z,7.00
2019-04-11T09:08:41.011Z,6.97
2019-04-11T09:09:41.158Z,7.02
2019-04-11T09:10:42.293Z,7.02
2019-04-11T09:11:42.210Z,6.95
2019-04-11T09:12:40.932Z,7.02
2019-04-11T09:13:41.873Z,7.00
2019-04-11T09:14:41.075Z,7.02
2019-04-11T09:15:41.267Z,7.13
2019-04-11T09:16:41.595Z,7.18
2019-04-11T09:17:54.931Z,7.15
2019-04-11T09:18:41.917Z,7.21
2019-04-11T09:19:41.135Z,7.21
2019-04-11T09:20:40.866Z,7.23
2019-04-11T09:21:41.011Z,7.32
2019-04-11T09:22:41.505Z,7.36
2019-04-11T09:23:41.855Z,7.43
2019-04-11T09:24:41.023Z,7.39
2019-04-11T09:25:40.908Z,7.42
2019-04-11T09:26:41.512Z,7.23
2019-04-11T09:27:40.911Z,7.25
2019-04-11T09:28:41.799Z,7.31
2019-04-11T09:29:41.809Z,7.32
2019-04-11T09:30:41.178Z,7.45
2019-04-11T09:31:41.671Z,7.29
2019-04-11T09:32:40.734Z,7.32
2019-04-11T09:33:41.483Z,7.39
2019-04-11T09:34:41.821Z,7.45
2019-04-11T09:35:41.591Z,7.53
2019-04-11T09:36:40.977Z,7.60
2019-04-11T09:37:42.904Z,7.56
2019-04-11T09:38:40.686Z,7.61
2019-04-11T09:39:41.494Z,7.70
2019-04-11T09:40:41.691Z,7.66
2019-04-11T09:41:40.709Z,7.77
2019-04-11T09:42:40.614Z,7.76
2019-04-11T09:43:40.763Z,7.94
2019-04-11T09:44:41.273Z,7.98
2019-04-11T09:45:41.719Z,8.01
2019-04-11T09:46:40.811Z,7.97
2019-04-11T09:47:40.587Z,7.95
2019-04-11T09:48:40.594Z,8.01
2019-04-11T09:49:40.642Z,8.05
2019-04-11T09:50:40.606Z,8.01
2019-04-11T09:51:40.674Z,8.16
2019-04-11T09:52:40.949Z,8.16
2019-04-11T09:53:41.014Z,8.34
2019-04-11T09:54:40.517Z,8.31
2019-04-11T09:55:41.609Z,8.33
2019-04-11T09:56:40.495Z,8.30
2019-04-11T09:57:41.809Z,8.26
2019-04-11T09:58:40.518Z,8.24
2019-04-11T09:59:41.154Z,8.31
2019-04-11T10:00:41.056Z,8.36
2019-04-11T10:01:40.819Z,8.51
2019-04-11T10:02:40.440Z,8.60
2019-04-11T10:03:40.917Z,8.60
2019-04-11T10:04:41.583Z,8.63
2019-04-11T10:05:40.728Z,8.58
2019-04-11T10:06:40.978Z,8.66
2019-04-11T10:07:40.354Z,8.61
2019-04-11T10:08:41.601Z,8.28
2019-04-11T10:09:40.332Z,8.28
2019-04-11T10:10:43.149Z,8.19
2019-04-11T10:11:40.501Z,8.15
2019-04-11T10:12:40.629Z,8.12
2019-04-11T10:13:40.709Z,8.10
2019-04-11T10:14:40.296Z,8.24
2019-04-11T10:15:40.433Z,8.34
2019-04-11T10:16:40.255Z,8.45
2019-04-11T10:17:40.339Z,8.63
2019-04-11T10:18:41.087Z,8.52
2019-04-11T10:19:40.347Z,8.58
2019-04-11T10:20:40.484Z,8.61
2019-04-11T10:21:41.645Z,8.60
2019-04-11T10:22:40.453Z,8.56
2019-04-11T10:23:40.936Z,8.53
2019-04-11T10:24:40.856Z,8.76
2019-04-11T10:25:40.192Z,8.85
2019-04-11T10:26:40.404Z,8.91
2019-04-11T10:27:40.641Z,8.99
2019-04-11T10:28:41.780Z,8.95
2019-04-11T10:29:40.145Z,9.03
2019-04-11T10:30:40.203Z,9.14
2019-04-11T10:31:40.107Z,9.29
2019-04-11T10:32:41.329Z,9.44
2019-04-11T10:33:41.346Z,9.56
2019-04-11T10:34:40.236Z,9.68
2019-04-11T10:35:40.775Z,9.76
2019-04-11T10:36:40.338Z,9.79
2019-04-11T10:37:40.174Z,9.95
2019-04-11T10:38:41.131Z,10.01
2019-04-11T10:39:40.050Z,9.97
2019-04-11T10:40:40.182Z,10.04
2019-04-11T10:41:40.174Z,10.01
2019-04-11T10:42:40.022Z,9.92
2019-04-11T10:43:40.412Z,9.94
2019-04-11T10:44:40.359Z,9.83
2019-04-11T10:45:40.125Z,9.66
2019-04-11T10:46:39.954Z,9.62
2019-04-11T10:47:40.892Z,9.51
2019-04-11T10:48:42.613Z,9.47
2019-04-11T10:49:42.094Z,9.39
2019-04-11T10:50:40.325Z,9.34
2019-04-11T10:51:40.823Z,9.21
2019-04-11T10:52:39.898Z,8.97
2019-04-11T10:53:39.916Z,8.87
2019-04-11T10:54:40.810Z,8.88
2019-04-11T10:55:39.966Z,9.06
2019-04-11T10:56:39.851Z,9.16
2019-04-11T10:57:40.831Z,9.16
2019-04-11T10:58:40.695Z,9.29
2019-04-11T10:59:40.762Z,9.34
2019-04-11T11:00:39.812Z,9.61
2019-04-11T11:01:40.225Z,9.82
2019-04-11T11:02:39.828Z,9.99
2019-04-11T11:03:39.971Z,10.07
2019-04-11T11:04:40.900Z,10.13
2019-04-11T11:05:40.110Z,10.10
2019-04-11T11:06:39.959Z,10.12
2019-04-11T11:07:40.540Z,10.19
2019-04-11T11:08:39.872Z,10.26
2019-04-11T11:09:39.877Z,10.34
2019-04-11T11:10:39.778Z,10.33
2019-04-11T11:11:40.797Z,10.40
2019-04-11T11:12:39.777Z,10.44
2019-04-11T11:13:40.742Z,10.38
2019-04-11T11:14:39.797Z,10.17
2019-04-11T11:15:39.899Z,10.16
2019-04-11T11:16:41.916Z,10.20
2019-04-11T11:18:03.238Z,10.10
2019-04-11T11:19:03.256Z,10.25
2019-04-11T11:19:55.281Z,10.19
2019-04-11T11:20:48.379Z,10.20
2019-04-11T11:21:40.579Z,10.15
2019-04-11T11:22:41.502Z,10.31
2019-04-11T11:23:40.713Z,10.33
2019-04-11T11:24:40.608Z,10.33
2019-04-11T11:25:39.573Z,10.34
2019-04-11T11:26:41.046Z,10.26
2019-04-11T11:27:39.505Z,10.37
2019-04-11T11:28:39.673Z,10.51
2019-04-11T11:29:40.387Z,10.92
2019-04-11T11:30:39.884Z,11.12
2019-04-11T11:31:40.756Z,11.70
2019-04-11T11:32:39.640Z,11.84
2019-04-11T11:33:40.596Z,11.97
2019-04-11T11:34:39.524Z,11.99
2019-04-11T11:35:40.990Z,11.97
2019-04-11T11:36:39.662Z,11.94
2019-04-11T11:37:39.723Z,11.97
2019-04-11T11:38:39.743Z,11.97
2019-04-11T11:39:39.537Z,11.86
2019-04-11T11:40:41.645Z,11.83
2019-04-11T11:41:40.409Z,11.75
2019-04-11T11:42:39.474Z,11.75
2019-04-11T11:43:39.370Z,11.65
2019-04-11T11:44:39.500Z,11.54
2019-04-11T11:45:39.485Z,11.51
2019-04-11T11:46:40.414Z,11.30
2019-04-11T11:47:41.218Z,11.25
2019-04-11T11:48:39.738Z,11.22
2019-04-11T11:49:48.755Z,11.18
2019-04-11T11:50:40.283Z,11.18
2019-04-11T11:51:39.432Z,11.23
2019-04-11T11:52:39.388Z,11.19
2019-04-11T11:53:40.551Z,10.97
2019-04-11T11:54:39.789Z,10.94
2019-04-11T11:55:39.365Z,10.84
2019-04-11T11:56:40.262Z,10.89
2019-04-11T11:57:39.362Z,10.87
2019-04-11T11:58:39.222Z,10.87
2019-04-11T11:59:40.587Z,10.97
2019-04-11T12:00:39.178Z,10.96
2019-04-11T12:01:43.234Z,11.02
2019-04-11T12:02:40.161Z,10.97
2019-04-11T12:03:40.749Z,10.76
2019-04-11T12:04:40.427Z,10.67
2019-04-11T12:05:39.249Z,10.71
2019-04-11T12:06:39.103Z,10.69
2019-04-11T12:07:39.420Z,10.69
2019-04-11T12:08:39.249Z,10.69
2019-04-11T12:09:39.420Z,10.74
2019-04-11T12:10:39.577Z,10.64
2019-04-11T12:11:39.947Z,10.59
2019-04-11T12:12:40.000Z,10.67
2019-04-11T12:13:40.679Z,10.67
2019-04-11T12:14:42.123Z,10.64
2019-04-11T12:15:39.288Z,10.74
2019-04-11T12:16:39.725Z,10.82
2019-04-11T12:17:38.972Z,10.92
2019-04-11T12:18:43.751Z,11.10
2019-04-11T12:19:47.968Z,11.23
2019-04-11T12:20:44.469Z,11.33
2019-04-11T12:21:40.967Z,11.43
2019-04-11T12:22:40.139Z,11.59
2019-04-11T12:23:48.627Z,11.60
2019-04-11T12:24:40.544Z,11.65
2019-04-11T12:25:39.100Z,11.52
2019-04-11T12:26:39.909Z,11.57
2019-04-11T12:27:40.055Z,11.72
2019-04-11T12:28:39.080Z,11.84
2019-04-11T12:29:44.398Z,11.91
2019-04-11T12:30:40.029Z,12.12
2019-04-11T12:31:39.665Z,12.28
2019-04-11T12:32:39.032Z,12.27
2019-04-11T12:33:38.966Z,12.39
2019-04-11T12:34:38.805Z,12.35
2019-04-11T12:35:40.040Z,12.25
2019-04-11T12:36:43.021Z,12.31
2019-04-11T12:37:39.873Z,12.46
2019-04-11T12:38:38.806Z,12.46
2019-04-11T12:39:38.845Z,12.55
2019-04-11T12:40:38.748Z,12.65
2019-04-11T12:41:38.873Z,12.68
2019-04-11T12:42:38.722Z,12.91
2019-04-11T12:43:39.050Z,12.90
2019-04-11T12:44:38.705Z,12.93
2019-04-11T12:45:38.787Z,12.91
2019-04-11T12:46:38.677Z,12.87
2019-04-11T12:47:39.357Z,12.87
2019-04-11T12:48:38.780Z,12.79
2019-04-11T12:49:38.824Z,12.68
2019-04-11T12:50:38.667Z,12.79
2019-04-11T12:51:38.606Z,12.70
2019-04-11T12:52:38.590Z,12.67
2019-04-11T12:53:38.789Z,12.57
2019-04-11T12:54:38.598Z,12.32
2019-04-11T12:55:38.763Z,11.95
2019-04-11T12:56:40.545Z,11.84
2019-04-11T12:57:38.570Z,11.65
2019-04-11T12:58:38.572Z,11.41
2019-04-11T12:59:38.675Z,11.19
2019-04-11T13:00:38.526Z,11.22
2019-04-11T13:01:38.739Z,11.18
2019-04-11T13:02:38.523Z,11.07
2019-04-11T13:03:38.571Z,11.08
2019-04-11T13:04:38.523Z,11.05
2019-04-11T13:05:38.619Z,11.00
2019-04-11T13:06:38.459Z,10.92
2019-04-11T13:07:38.620Z,10.82
2019-04-11T13:08:38.490Z,10.54
2019-04-11T13:09:38.554Z,10.42
2019-04-11T13:10:38.408Z,10.34
2019-04-11T13:11:38.605Z,10.31
2019-04-11T13:12:38.384Z,10.25
2019-04-11T13:13:38.529Z,10.26
2019-04-11T13:14:38.372Z,10.16